Time;durP1;ratioP1;P1;durP2;ratioP2;P2;SDS_P1;SDS_P2;PMS_P1;PMS_P2;Temp;Humidity;BMP_temperature;BMP_pressure;BME280_temperature;BME280_humidity;BME280_pressure;Samples;Min_cycle;Max_cycle;Signal;HPM_P1;HPM_P2
2022/02/04 00:09:11;;;;;;;38.50;24.35;;;;;;;;;;5028190;28;20056;-69
2022/02/04 00:25:25;;;;;;;38.88;23.02;;;;;;;;;;5019847;28;20496;-68
2022/02/04 00:27:53;;;;;;;39.30;22.00;;;;;;;;;;5010264;28;20053;-68
2022/02/04 00:30:26;;;;;;;39.30;23.23;;;;;;;;;;5020087;28;20049;-68
2022/02/04 00:32:56;;;;;;;38.67;22.02;;;;;;;;;;5012857;28;20057;-68
2022/02/04 00:38:17;;;;;;;37.58;21.77;;;;;;;;;;4990134;28;20399;-68
2022/02/04 00:40:47;;;;;;;39.85;22.85;;;;;;;;;;5000005;28;20576;-69
2022/02/04 00:43:15;;;;;;;35.10;22.25;;;;;;;;;;5017491;28;20056;-68
2022/02/04 00:45:58;;;;;;;35.08;21.80;;;;;;;;;;5010828;28;20549;-68
2022/02/04 00:48:54;;;;;;;35.00;21.95;;;;;;;;;;5014762;28;20049;-68
2022/02/04 00:51:41;;;;;;;41.97;24.38;;;;;;;;;;5007356;28;20057;-68
2022/02/04 01:26:31;;;;;;;36.58;22.50;;;;;;;;;;5018059;28;20064;-68
2022/02/04 01:28:57;;;;;;;40.15;23.02;;;;;;;;;;5021182;28;20053;-68
2022/02/04 01:31:24;;;;;;;37.85;23.42;;;;;;;;;;5007313;28;20292;-68
2022/02/04 01:33:52;;;;;;;39.53;22.40;;;;;;;;;;5018855;28;20053;-68
2022/02/04 01:36:18;;;;;;;37.47;21.83;;;;;;;;;;5013727;28;20045;-69
2022/02/04 01:38:44;;;;;;;36.70;21.52;;;;;;;;;;5028724;28;20044;-68
2022/02/04 01:41:11;;;;;;;37.20;21.67;;;;;;;;;;5038387;28;20072;-69
2022/02/04 01:43:38;;;;;;;37.17;21.83;;;;;;;;;;5034124;28;20079;-69
2022/02/04 01:46:06;;;;;;;34.38;20.83;;;;;;;;;;5037759;28;20056;-69
2022/02/04 01:48:32;;;;;;;36.13;20.58;;;;;;;;;;5024414;28;20059;-69
2022/02/04 01:51:00;;;;;;;32.88;19.85;;;;;;;;;;5022355;28;20053;-69
2022/02/04 01:53:30;;;;;;;36.17;19.67;;;;;;;;;;5014926;28;20421;-69
2022/02/04 01:56:01;;;;;;;30.17;17.08;;;;;;;;;;5021814;28;20049;-68
2022/02/04 01:58:29;;;;;;;31.02;17.98;;;;;;;;;;5008639;28;20104;-68
2022/02/04 02:00:55;;;;;;;33.40;18.92;;;;;;;;;;5017508;28;20049;-69
2022/02/04 02:03:22;;;;;;;29.70;18.05;;;;;;;;;;5022922;28;20218;-69
2022/02/04 02:05:50;;;;;;;31.08;19.63;;;;;;;;;;5013736;28;20046;-69
2022/02/04 02:08:18;;;;;;;27.45;17.50;;;;;;;;;;5023357;28;20057;-69
2022/02/04 02:10:46;;;;;;;30.37;17.23;;;;;;;;;;5014201;28;20053;-68
2022/02/04 02:16:00;;;;;;;26.75;17.30;;;;;;;;;;5015136;28;20049;-68
2022/02/04 02:42:00;;;;;;;21.80;14.38;;;;;;;;;;4956648;28;20460;-68
2022/02/04 02:47:10;;;;;;;22.10;14.77;;;;;;;;;;4967700;28;20046;-68
2022/02/04 02:52:39;;;;;;;25.05;14.55;;;;;;;;;;4963192;28;20051;-68
2022/02/04 03:01:02;;;;;;;21.83;14.15;;;;;;;;;;4978549;28;20050;-68
2022/02/04 03:03:04;;;;;;;24.95;14.70;;;;;;;;;;4944971;28;20050;-68
2022/02/04 03:05:30;;;;;;;22.67;13.93;;;;;;;;;;4957331;28;20054;-68
2022/02/04 03:07:56;;;;;;;20.85;12.85;;;;;;;;;;4958791;28;20057;-68
2022/02/04 03:10:22;;;;;;;21.85;13.18;;;;;;;;;;5018133;28;20041;-68
2022/02/04 03:12:49;;;;;;;22.10;13.80;;;;;;;;;;5031320;28;20095;-68
2022/02/04 03:15:16;;;;;;;22.95;13.35;;;;;;;;;;5010896;28;20494;-68
2022/02/04 03:17:44;;;;;;;23.48;13.63;;;;;;;;;;5020296;28;20101;-68
2022/02/04 03:20:13;;;;;;;19.23;13.02;;;;;;;;;;5007792;28;20053;-68
2022/02/04 03:22:40;;;;;;;22.20;12.55;;;;;;;;;;5014855;28;20037;-68
2022/02/04 03:25:09;;;;;;;22.73;12.65;;;;;;;;;;5011414;28;20061;-68
2022/02/04 03:27:48;;;;;;;21.55;12.93;;;;;;;;;;5020544;28;20466;-68
2022/02/04 03:32:54;;;;;;;22.63;12.55;;;;;;;;;;5019048;28;20068;-68
2022/02/04 03:35:22;;;;;;;21.67;12.73;;;;;;;;;;5012788;28;20253;-68
2022/02/04 03:37:50;;;;;;;19.65;12.07;;;;;;;;;;5010045;28;20050;-68
2022/02/04 03:40:17;;;;;;;21.67;11.68;;;;;;;;;;5020383;28;20057;-68
2022/02/04 03:42:44;;;;;;;18.75;11.43;;;;;;;;;;5010026;28;20057;-68
2022/02/04 03:45:10;;;;;;;19.08;11.02;;;;;;;;;;5019368;28;20049;-68
2022/02/04 03:47:37;;;;;;;18.88;11.35;;;;;;;;;;5007079;28;20510;-68
2022/02/04 03:50:03;;;;;;;17.80;10.65;;;;;;;;;;5013431;28;20069;-68
2022/02/04 03:52:30;;;;;;;19.58;11.82;;;;;;;;;;5018175;28;20045;-68
2022/02/04 03:54:56;;;;;;;20.20;11.38;;;;;;;;;;5010846;28;20060;-68
2022/02/04 03:57:23;;;;;;;20.90;10.93;;;;;;;;;;5019200;28;20061;-68
2022/02/04 03:59:49;;;;;;;20.27;11.25;;;;;;;;;;5010993;28;20696;-68
2022/02/04 04:02:16;;;;;;;17.95;11.18;;;;;;;;;;5014500;28;20065;-67
2022/02/04 04:04:42;;;;;;;19.17;10.88;;;;;;;;;;5009883;28;20143;-67
2022/02/04 04:07:08;;;;;;;19.25;10.07;;;;;;;;;;5026749;28;20049;-67
2022/02/04 04:09:38;;;;;;;20.50;10.75;;;;;;;;;;5038960;28;20301;-67
2022/02/04 04:12:05;;;;;;;16.90;10.25;;;;;;;;;;5014468;28;20234;-67
2022/02/04 04:14:31;;;;;;;18.13;10.75;;;;;;;;;;5015825;28;20264;-67
2022/02/04 04:16:58;;;;;;;22.13;10.23;;;;;;;;;;5026073;28;20362;-67
2022/02/04 04:19:26;;;;;;;16.27;9.88;;;;;;;;;;5038681;28;20057;-67
2022/02/04 04:21:52;;;;;;;15.60;9.52;;;;;;;;;;5025033;28;20050;-68
2022/02/04 04:24:19;;;;;;;16.35;10.07;;;;;;;;;;5012548;28;20069;-68
2022/02/04 04:26:45;;;;;;;15.80;9.27;;;;;;;;;;5018599;28;20050;-69
2022/02/04 04:29:11;;;;;;;17.90;9.85;;;;;;;;;;5004854;28;20056;-68
2022/02/04 04:31:38;;;;;;;15.70;9.63;;;;;;;;;;5014271;28;20042;-68
2022/02/04 04:34:04;;;;;;;17.98;9.93;;;;;;;;;;5010794;28;20091;-68
2022/02/04 04:36:30;;;;;;;15.93;9.10;;;;;;;;;;5017595;28;20049;-68
2022/02/04 04:44:28;;;;;;;17.55;9.32;;;;;;;;;;5009081;28;20562;-68
2022/02/04 05:28:12;;;;;;;13.55;7.45;;;;;;;;;;5019732;28;20133;-67
2022/02/04 05:30:38;;;;;;;15.52;7.07;;;;;;;;;;5018493;28;20049;-66
2022/02/04 05:33:05;;;;;;;11.68;7.13;;;;;;;;;;5019010;28;20049;-66
2022/02/04 05:35:31;;;;;;;12.82;6.95;;;;;;;;;;5021743;28;20045;-66
2022/02/04 05:37:58;;;;;;;11.27;5.68;;;;;;;;;;5008993;28;20060;-66
2022/02/04 05:40:28;;;;;;;11.60;6.32;;;;;;;;;;5018408;28;20053;-66
2022/02/04 05:43:00;;;;;;;12.45;6.47;;;;;;;;;;5012960;28;20054;-68
2022/02/04 05:45:31;;;;;;;13.65;7.00;;;;;;;;;;5022468;28;20388;-67
2022/02/04 05:48:02;;;;;;;12.32;5.82;;;;;;;;;;5019165;28;20793;-68
2022/02/04 05:50:57;;;;;;;12.00;6.22;;;;;;;;;;5041902;28;20053;-67
2022/02/04 05:53:30;;;;;;;11.18;6.65;;;;;;;;;;5019246;28;20053;-68
2022/02/04 05:58:34;;;;;;;10.55;6.30;;;;;;;;;;5002472;28;20053;-68
2022/02/04 06:03:53;;;;;;;12.18;6.10;;;;;;;;;;5018146;28;20056;-69
2022/02/04 06:11:35;;;;;;;11.38;5.90;;;;;;;;;;5012833;28;20140;-68
2022/02/04 06:22:34;;;;;;;14.13;5.90;;;;;;;;;;5012962;28;20060;-69
2022/02/04 06:24:54;;;;;;;9.13;5.40;;;;;;;;;;5019277;28;20327;-69
2022/02/04 06:27:21;;;;;;;9.75;5.30;;;;;;;;;;5021755;28;20049;-69
2022/02/04 06:29:51;;;;;;;10.00;5.43;;;;;;;;;;5014236;28;20804;-69
2022/02/04 06:32:18;;;;;;;9.75;4.97;;;;;;;;;;5016312;28;20132;-69
2022/02/04 06:34:45;;;;;;;12.07;5.05;;;;;;;;;;5008354;28;20053;-69
2022/02/04 06:37:12;;;;;;;10.88;5.20;;;;;;;;;;5021776;28;20081;-69
2022/02/04 06:39:38;;;;;;;9.32;5.53;;;;;;;;;;5012647;28;20045;-69
2022/02/04 06:42:04;;;;;;;10.13;5.30;;;;;;;;;;5018915;28;20053;-67
2022/02/04 06:44:31;;;;;;;12.15;5.22;;;;;;;;;;5021358;28;20057;-67
2022/02/04 06:46:58;;;;;;;9.27;4.90;;;;;;;;;;5007601;28;20057;-66
2022/02/04 06:49:24;;;;;;;10.35;5.93;;;;;;;;;;5019816;28;20049;-66
2022/02/04 06:51:50;;;;;;;8.25;4.80;;;;;;;;;;5010575;28;20057;-67
2022/02/04 06:54:16;;;;;;;9.20;4.47;;;;;;;;;;5020943;28;20053;-67
2022/02/04 06:56:43;;;;;;;8.07;4.57;;;;;;;;;;5011628;28;20053;-67
2022/02/04 06:59:09;;;;;;;7.95;4.30;;;;;;;;;;5014227;28;20045;-67
2022/02/04 07:01:36;;;;;;;9.48;4.72;;;;;;;;;;5011774;28;20045;-67
2022/02/04 07:04:07;;;;;;;9.45;4.75;;;;;;;;;;5010292;28;20045;-67
2022/02/04 07:06:38;;;;;;;11.90;4.85;;;;;;;;;;5023811;28;20056;-67
2022/02/04 07:12:14;;;;;;;10.48;4.90;;;;;;;;;;5017916;28;20056;-67
2022/02/04 07:19:51;;;;;;;11.15;4.60;;;;;;;;;;5011856;28;20302;-67
2022/02/04 07:22:27;;;;;;;6.93;4.45;;;;;;;;;;5017762;28;20508;-67
2022/02/04 07:24:56;;;;;;;8.75;4.88;;;;;;;;;;5014722;28;20538;-67
2022/02/04 07:27:23;;;;;;;5.22;3.55;;;;;;;;;;5011253;28;20397;-67
2022/02/04 07:29:52;;;;;;;8.27;5.28;;;;;;;;;;5015489;28;20056;-67
2022/02/04 07:35:02;;;;;;;7.43;4.50;;;;;;;;;;5020355;28;20053;-67
2022/02/04 07:43:01;;;;;;;8.20;4.68;;;;;;;;;;5005805;28;20112;-67
2022/02/04 07:45:27;;;;;;;7.05;4.28;;;;;;;;;;5018819;28;20056;-67
2022/02/04 07:47:56;;;;;;;8.55;4.97;;;;;;;;;;5008575;28;20091;-67
2022/02/04 07:50:22;;;;;;;7.57;4.38;;;;;;;;;;5033251;28;20516;-67
2022/02/04 07:52:49;;;;;;;7.18;4.53;;;;;;;;;;5039511;28;20395;-66
2022/02/04 07:55:15;;;;;;;8.98;4.78;;;;;;;;;;5026392;28;20064;-66
2022/02/04 07:57:42;;;;;;;6.70;3.95;;;;;;;;;;5037834;28;20056;-66
2022/02/04 08:00:10;;;;;;;8.52;4.32;;;;;;;;;;5030134;28;20053;-66
2022/02/04 08:02:36;;;;;;;6.78;4.47;;;;;;;;;;5017867;28;20159;-66
2022/02/04 08:05:05;;;;;;;8.13;4.47;;;;;;;;;;5030504;28;20049;-64
2022/02/04 08:07:38;;;;;;;6.97;4.00;;;;;;;;;;5027005;28;20053;-64
2022/02/04 08:10:25;;;;;;;9.45;5.10;;;;;;;;;;5024666;28;20422;-65
2022/02/04 08:31:49;;;;;;;9.77;5.00;;;;;;;;;;4999389;28;20041;-65
2022/02/04 08:55:24;;;;;;;9.20;5.32;;;;;;;;;;5019136;28;20050;-65
2022/02/04 09:00:39;;;;;;;13.05;7.00;;;;;;;;;;5018252;28;20049;-64
2022/02/04 09:03:14;;;;;;;9.23;5.70;;;;;;;;;;5003062;28;20649;-64
2022/02/04 09:05:50;;;;;;;9.93;5.97;;;;;;;;;;5014077;28;20141;-64
2022/02/04 09:08:25;;;;;;;10.85;7.20;;;;;;;;;;5028463;28;20508;-65
2022/02/04 09:10:52;;;;;;;8.75;6.15;;;;;;;;;;5032014;28;20063;-64
2022/02/04 09:19:00;;;;;;;10.63;6.00;;;;;;;;;;5033867;28;20064;-65
2022/02/04 09:21:48;;;;;;;13.88;6.40;;;;;;;;;;5021380;28;20049;-65
2022/02/04 09:24:13;;;;;;;8.25;5.35;;;;;;;;;;5018537;28;20053;-66
2022/02/04 09:26:39;;;;;;;7.47;5.40;;;;;;;;;;5009367;28;20060;-64
2022/02/04 09:29:05;;;;;;;9.30;6.22;;;;;;;;;;5018374;28;20062;-64
2022/02/04 09:31:33;;;;;;;10.20;6.70;;;;;;;;;;5005559;28;20057;-65
2022/02/04 09:33:59;;;;;;;9.27;5.57;;;;;;;;;;5013127;28;20060;-65
2022/02/04 09:36:26;;;;;;;10.15;7.30;;;;;;;;;;5018998;28;20064;-65
2022/02/04 09:38:53;;;;;;;10.68;6.22;;;;;;;;;;4993119;28;20430;-65
2022/02/04 09:41:20;;;;;;;10.85;6.28;;;;;;;;;;5019780;28;20061;-65
2022/02/04 09:43:47;;;;;;;8.70;6.07;;;;;;;;;;5003252;28;20060;-65
2022/02/04 09:46:14;;;;;;;8.65;5.75;;;;;;;;;;5019170;28;20049;-67
2022/02/04 09:48:43;;;;;;;7.85;5.72;;;;;;;;;;5011323;28;20056;-64
2022/02/04 09:51:12;;;;;;;8.02;5.40;;;;;;;;;;5004305;28;20049;-65
2022/02/04 10:08:17;;;;;;;9.85;7.22;;;;;;;;;;4978243;28;20053;-65
2022/02/04 10:11:37;;;;;;;8.90;6.15;;;;;;;;;;5014709;28;20047;-65
2022/02/04 10:14:01;;;;;;;8.48;6.18;;;;;;;;;;5016902;28;20471;-65
2022/02/04 10:19:03;;;;;;;7.93;6.13;;;;;;;;;;5013336;28;20513;-65
2022/02/04 10:21:30;;;;;;;7.82;5.50;;;;;;;;;;5020963;28;20056;-65
2022/02/04 10:24:00;;;;;;;8.48;5.53;;;;;;;;;;5007825;28;20499;-66
2022/02/04 10:26:26;;;;;;;10.00;5.50;;;;;;;;;;5013023;28;20144;-65
2022/02/04 10:28:53;;;;;;;6.55;5.10;;;;;;;;;;5012983;28;20053;-64
2022/02/04 10:31:20;;;;;;;5.78;4.07;;;;;;;;;;5020905;28;20053;-65
2022/02/04 10:34:12;;;;;;;7.88;5.07;;;;;;;;;;5021550;28;20156;-65
2022/02/04 10:37:00;;;;;;;6.93;4.97;;;;;;;;;;5017054;28;20609;-65
2022/02/04 10:42:17;;;;;;;6.43;4.45;;;;;;;;;;5019779;28;20095;-66
2022/02/04 10:45:06;;;;;;;7.15;4.65;;;;;;;;;;5021044;28;20518;-66
2022/02/04 10:47:31;;;;;;;7.50;4.88;;;;;;;;;;5030006;28;20052;-66
2022/02/04 10:50:15;;;;;;;8.35;4.32;;;;;;;;;;5017014;28;20060;-66
2022/02/04 10:53:07;;;;;;;6.90;5.32;;;;;;;;;;5007781;28;20076;-66
2022/02/04 10:56:01;;;;;;;9.18;5.68;;;;;;;;;;5020985;28;20063;-65
2022/02/04 10:58:42;;;;;;;8.38;5.75;;;;;;;;;;5012894;28;20076;-68
2022/02/04 11:01:27;;;;;;;9.95;6.18;;;;;;;;;;5020420;28;20049;-68
2022/02/04 11:03:58;;;;;;;7.55;5.75;;;;;;;;;;4988663;28;20076;-66
2022/02/04 11:06:44;;;;;;;8.68;5.28;;;;;;;;;;5002499;28;20429;-68
2022/02/04 11:09:29;;;;;;;7.07;4.13;;;;;;;;;;5024885;28;20056;-66
2022/02/04 11:31:24;;;;;;;7.68;4.47;;;;;;;;;;5020555;28;20474;-68
2022/02/04 11:34:08;;;;;;;8.35;4.50;;;;;;;;;;5013490;28;20064;-68
2022/02/04 11:36:48;;;;;;;7.60;4.72;;;;;;;;;;5021282;28;20067;-69
2022/02/04 11:48:25;;;;;;;6.40;3.70;;;;;;;;;;5014989;28;20045;-66
2022/02/04 11:51:15;;;;;;;5.05;3.20;;;;;;;;;;5010169;28;20054;-67
2022/02/04 11:54:29;;;;;;;5.20;3.92;;;;;;;;;;5017695;28;20478;-67
2022/02/04 11:56:51;;;;;;;6.68;3.70;;;;;;;;;;5012071;28;20041;-67
2022/02/04 11:59:31;;;;;;;4.72;3.45;;;;;;;;;;5016633;28;20305;-67
2022/02/04 12:01:58;;;;;;;5.25;3.75;;;;;;;;;;5006527;28;20546;-66
2022/02/04 12:04:24;;;;;;;5.40;3.60;;;;;;;;;;5032705;28;20445;-66
2022/02/04 12:06:52;;;;;;;5.90;3.17;;;;;;;;;;5008824;28;20053;-67
2022/02/04 12:09:34;;;;;;;6.10;3.47;;;;;;;;;;5021196;28;20049;-67
2022/02/04 12:12:01;;;;;;;3.92;2.78;;;;;;;;;;5011198;28;20057;-66
2022/02/04 12:14:31;;;;;;;4.38;2.88;;;;;;;;;;5010699;28;20046;-66
2022/02/04 12:17:04;;;;;;;6.82;4.03;;;;;;;;;;5015825;28;20526;-67
2022/02/04 12:19:34;;;;;;;8.02;3.55;;;;;;;;;;5011292;28;20447;-67
2022/02/04 12:22:01;;;;;;;5.70;3.42;;;;;;;;;;5028013;28;20053;-67
2022/02/04 12:24:31;;;;;;;5.07;3.35;;;;;;;;;;5032506;28;20056;-67
2022/02/04 12:27:16;;;;;;;4.63;2.90;;;;;;;;;;5027388;28;20260;-66
2022/02/04 12:29:42;;;;;;;4.97;3.10;;;;;;;;;;5007252;28;20049;-66
2022/02/04 12:32:09;;;;;;;4.65;2.75;;;;;;;;;;5019661;28;20703;-66
2022/02/04 12:34:36;;;;;;;5.82;3.33;;;;;;;;;;5014918;28;20484;-66
2022/02/04 12:37:04;;;;;;;6.35;3.00;;;;;;;;;;5011457;28;20136;-66
2022/02/04 12:39:31;;;;;;;5.47;3.40;;;;;;;;;;5017655;28;20060;-66
2022/02/04 12:41:59;;;;;;;5.00;3.17;;;;;;;;;;5006354;28;20053;-66
2022/02/04 12:44:26;;;;;;;5.30;3.03;;;;;;;;;;5013586;28;20059;-66
2022/02/04 12:46:54;;;;;;;5.03;3.30;;;;;;;;;;5010826;28;20506;-66
2022/02/04 12:49:22;;;;;;;5.07;3.10;;;;;;;;;;5018056;28;20506;-66
2022/02/04 12:52:10;;;;;;;3.67;2.90;;;;;;;;;;5012114;28;20344;-67
2022/02/04 12:54:50;;;;;;;8.48;3.10;;;;;;;;;;5019806;28;20354;-66
2022/02/04 12:59:56;;;;;;;4.53;2.93;;;;;;;;;;5012406;28;20503;-66
2022/02/04 13:02:42;;;;;;;4.35;2.97;;;;;;;;;;5018903;28;20068;-66
2022/02/04 13:11:00;;;;;;;4.53;2.70;;;;;;;;;;5015880;28;20442;-66
2022/02/04 13:13:29;;;;;;;5.38;2.35;;;;;;;;;;5031784;28;20052;-66
2022/02/04 13:15:56;;;;;;;5.18;2.63;;;;;;;;;;5031726;28;20053;-65
2022/02/04 13:18:23;;;;;;;5.30;2.63;;;;;;;;;;5040507;28;20258;-66
2022/02/04 13:20:52;;;;;;;5.47;2.72;;;;;;;;;;5010639;28;20054;-66
2022/02/04 13:23:23;;;;;;;4.43;2.50;;;;;;;;;;5006892;28;20053;-66
2022/02/04 13:25:50;;;;;;;4.45;2.72;;;;;;;;;;5019560;28;20140;-66
2022/02/04 13:28:20;;;;;;;4.43;2.38;;;;;;;;;;5013748;28;20057;-67
2022/02/04 13:31:00;;;;;;;2.85;2.20;;;;;;;;;;5024313;28;20389;-67
2022/02/04 13:33:48;;;;;;;5.45;2.70;;;;;;;;;;5016164;28;20495;-66
2022/02/04 13:39:14;;;;;;;7.13;2.63;;;;;;;;;;5009456;28;20050;-67
2022/02/04 13:47:07;;;;;;;6.07;3.90;;;;;;;;;;5023883;28;20144;-66
2022/02/04 13:57:08;;;;;;;8.30;4.25;;;;;;;;;;5018178;28;20475;-67
2022/02/04 13:59:44;;;;;;;6.78;3.53;;;;;;;;;;5023312;28;20490;-67
2022/02/04 14:02:12;;;;;;;9.45;5.13;;;;;;;;;;4997288;28;20056;-67
2022/02/04 14:04:39;;;;;;;;;;;;;;;;;;5017928;28;20327;-67
2022/02/04 14:07:07;;;;;;;8.07;4.55;;;;;;;;;;5018000;28;19975;-67
2022/02/04 14:09:36;;;;;;;9.07;5.10;;;;;;;;;;5041293;28;20053;-67
2022/02/04 14:12:13;;;;;;;9.73;5.57;;;;;;;;;;5020695;28;20472;-66
2022/02/04 14:14:40;;;;;;;9.02;5.13;;;;;;;;;;5021618;28;20049;-66
2022/02/04 14:17:06;;;;;;;11.30;5.78;;;;;;;;;;5021610;28;20411;-67
2022/02/04 14:19:32;;;;;;;7.95;4.82;;;;;;;;;;5009096;28;20053;-67
2022/02/04 14:21:59;;;;;;;10.73;5.75;;;;;;;;;;5016419;28;20057;-67
2022/02/04 14:24:27;;;;;;;8.63;5.13;;;;;;;;;;5013196;28;20096;-66
2022/02/04 14:26:54;;;;;;;8.93;4.88;;;;;;;;;;5021493;28;20061;-66
2022/02/04 14:29:26;;;;;;;9.85;5.00;;;;;;;;;;5021808;28;20099;-66
2022/02/04 14:32:18;;;;;;;10.57;4.90;;;;;;;;;;5019284;28;20078;-66
2022/02/04 14:54:00;;;;;;;11.38;5.18;;;;;;;;;;5032154;28;20055;-67
2022/02/04 15:02:05;;;;;;;3.03;1.40;;;;;;;;;;5016537;28;20068;-67
2022/02/04 15:04:40;;;;;;;3.15;1.10;;;;;;;;;;5009870;28;20450;-68
2022/02/04 15:07:08;;;;;;;1.33;0.80;;;;;;;;;;5016595;28;20056;-67
2022/02/04 15:09:37;;;;;;;1.80;0.68;;;;;;;;;;5018838;28;20284;-67
2022/02/04 15:12:03;;;;;;;0.77;0.50;;;;;;;;;;5016702;28;20514;-67
2022/02/04 15:14:30;;;;;;;0.80;0.45;;;;;;;;;;5010478;28;20049;-67
2022/02/04 15:16:56;;;;;;;1.58;0.45;;;;;;;;;;5007341;28;20517;-67
2022/02/04 15:19:23;;;;;;;1.15;0.40;;;;;;;;;;5019573;28;20144;-68
2022/02/04 15:21:51;;;;;;;0.30;0.30;;;;;;;;;;5011979;28;20137;-67
2022/02/04 15:24:17;;;;;;;2.05;0.35;;;;;;;;;;5020377;28;20049;-67
2022/02/04 15:26:44;;;;;;;1.67;0.50;;;;;;;;;;5019637;28;20055;-67
2022/02/04 15:29:13;;;;;;;1.05;0.40;;;;;;;;;;5002376;28;20557;-67
2022/02/04 15:31:50;;;;;;;0.47;0.47;;;;;;;;;;5011874;28;20431;-67
2022/02/04 15:34:17;;;;;;;0.93;0.32;;;;;;;;;;5012811;28;20076;-67
2022/02/04 15:36:46;;;;;;;1.33;0.40;;;;;;;;;;5021732;28;20072;-67
2022/02/04 15:39:12;;;;;;;;;;;;;;;;;;5014314;28;20451;-66
2022/02/04 15:41:43;;;;;;;0.60;0.47;;;;;;;;;;5019484;28;19932;-67
2022/02/04 15:44:20;;;;;;;1.38;0.68;;;;;;;;;;5003781;28;20053;-67
2022/02/04 15:59:59;;;;;;;2.75;1.30;;;;;;;;;;5014668;28;20485;-67
2022/02/04 16:02:42;;;;;;;0.77;0.70;;;;;;;;;;5011033;28;20064;-67
2022/02/04 16:05:11;;;;;;;2.67;1.00;;;;;;;;;;5037592;28;20838;-67
2022/02/04 16:07:38;;;;;;;1.15;0.90;;;;;;;;;;5025459;28;20059;-67
2022/02/04 16:10:26;;;;;;;2.15;0.90;;;;;;;;;;5035572;28;20064;-67
2022/02/04 16:13:43;;;;;;;1.53;1.10;;;;;;;;;;5016798;28;20053;-67
2022/02/04 16:15:54;;;;;;;0.90;0.75;;;;;;;;;;5013960;28;20434;-67
2022/02/04 16:18:24;;;;;;;2.22;1.17;;;;;;;;;;5012736;28;20490;-67
2022/02/04 16:21:04;;;;;;;2.13;1.00;;;;;;;;;;5019692;28;20056;-67
2022/02/04 16:23:35;;;;;;;1.33;1.10;;;;;;;;;;4995882;28;20050;-67
2022/02/04 16:26:25;;;;;;;2.05;1.25;;;;;;;;;;4985648;28;20088;-67
2022/02/04 16:28:52;;;;;;;1.63;1.35;;;;;;;;;;5011862;28;20545;-67
2022/02/04 16:31:18;;;;;;;1.50;1.13;;;;;;;;;;5011549;28;20049;-67
2022/02/04 16:33:46;;;;;;;1.20;1.10;;;;;;;;;;5019838;28;20061;-67
2022/02/04 16:36:17;;;;;;;1.58;1.00;;;;;;;;;;5010890;28;20061;-67
2022/02/04 16:38:51;;;;;;;1.63;1.23;;;;;;;;;;5015458;28;20058;-67
2022/02/04 16:41:32;;;;;;;1.10;1.00;;;;;;;;;;5006732;28;20049;-67
2022/02/04 16:43:58;;;;;;;1.02;1.00;;;;;;;;;;5017653;28;20049;-67
2022/02/04 16:46:25;;;;;;;1.15;1.05;;;;;;;;;;5018908;28;20148;-67
2022/02/04 16:48:51;;;;;;;3.40;1.40;;;;;;;;;;5010850;28;20055;-67
2022/02/04 16:51:18;;;;;;;1.65;1.17;;;;;;;;;;5018167;28;20247;-67
2022/02/04 16:53:45;;;;;;;2.10;1.23;;;;;;;;;;5003717;28;20053;-67
2022/02/04 16:56:11;;;;;;;3.30;0.85;;;;;;;;;;5018990;28;20052;-67
2022/02/04 16:58:37;;;;;;;4.75;0.90;;;;;;;;;;5011769;28;20441;-68
2022/02/04 17:01:04;;;;;;;1.50;0.85;;;;;;;;;;5022678;28;20830;-67
2022/02/04 17:03:30;;;;;;;3.63;0.90;;;;;;;;;;5023557;28;20064;-67
2022/02/04 17:06:01;;;;;;;3.53;1.00;;;;;;;;;;5010152;28;20049;-67
2022/02/04 17:08:34;;;;;;;3.65;1.10;;;;;;;;;;5018550;28;20473;-67
2022/02/04 17:11:11;;;;;;;2.53;0.98;;;;;;;;;;5014278;28;20133;-68
2022/02/04 17:13:38;;;;;;;4.80;1.00;;;;;;;;;;5039038;28;20418;-67
2022/02/04 17:16:05;;;;;;;2.33;1.40;;;;;;;;;;5034746;28;20055;-68
2022/02/04 17:18:31;;;;;;;2.53;1.30;;;;;;;;;;5042318;28;20053;-68
2022/02/04 17:21:01;;;;;;;2.80;1.90;;;;;;;;;;5030147;28;20053;-67
2022/02/04 17:23:41;;;;;;;3.55;2.38;;;;;;;;;;5042288;28;20045;-67
2022/02/04 17:26:07;;;;;;;4.03;2.00;;;;;;;;;;5043512;28;20049;-67
2022/02/04 17:28:34;;;;;;;2.72;2.10;;;;;;;;;;5021732;28;20052;-67
2022/02/04 17:31:00;;;;;;;3.00;2.10;;;;;;;;;;5023546;28;20115;-67
2022/02/04 17:33:27;;;;;;;5.35;2.40;;;;;;;;;;5013603;28;20083;-67
2022/02/04 17:35:56;;;;;;;4.05;2.50;;;;;;;;;;5022299;28;20049;-67
2022/02/04 17:38:22;;;;;;;;;;;;;;;;;;5015219;28;20054;-68
2022/02/04 17:40:49;;;;;;;5.38;1.75;;;;;;;;;;5022044;28;19935;-68
2022/02/04 17:43:16;;;;;;;7.18;2.35;;;;;;;;;;5017775;28;20045;-68
2022/02/04 17:45:42;;;;;;;4.80;2.00;;;;;;;;;;5009994;28;20046;-68
2022/02/04 17:48:19;;;;;;;3.85;1.52;;;;;;;;;;5022654;28;20064;-68
2022/02/04 17:51:04;;;;;;;4.20;1.60;;;;;;;;;;5013606;28;20054;-68
2022/02/04 17:53:47;;;;;;;5.20;1.83;;;;;;;;;;5021792;28;20431;-68
2022/02/04 17:56:48;;;;;;;3.85;1.30;;;;;;;;;;5011338;28;20430;-68
2022/02/04 17:59:46;;;;;;;2.28;1.17;;;;;;;;;;5017285;28;20414;-67
2022/02/04 18:02:13;;;;;;;3.53;1.23;;;;;;;;;;5013361;28;20076;-68
2022/02/04 18:05:21;;;;;;;4.60;1.25;;;;;;;;;;5021076;28;20574;-67
2022/02/04 18:07:31;;;;;;;7.95;1.80;;;;;;;;;;5013397;28;20053;-67
2022/02/04 18:09:58;;;;;;;4.97;1.95;;;;;;;;;;5019921;28;20809;-67
2022/02/04 18:12:31;;;;;;;2.85;1.45;;;;;;;;;;5006634;28;20279;-67
2022/02/04 18:14:57;;;;;;;4.65;1.55;;;;;;;;;;5020729;28;20483;-67
2022/02/04 18:17:24;;;;;;;5.13;1.63;;;;;;;;;;5018153;28;20447;-67
2022/02/04 18:19:50;;;;;;;7.68;2.00;;;;;;;;;;5014208;28;20160;-67
2022/02/04 18:22:17;;;;;;;7.47;2.03;;;;;;;;;;5025032;28;20056;-67
2022/02/04 18:24:43;;;;;;;8.43;2.25;;;;;;;;;;5018372;28;20049;-68
2022/02/04 18:27:14;;;;;;;11.18;2.90;;;;;;;;;;5025943;28;20410;-67
2022/02/04 18:29:46;;;;;;;13.32;3.03;;;;;;;;;;5011021;28;20608;-68
2022/02/04 18:32:13;;;;;;;9.50;2.47;;;;;;;;;;5015422;28;20599;-67
2022/02/04 18:34:40;;;;;;;10.35;2.17;;;;;;;;;;5018292;28;20056;-67
2022/02/04 18:37:06;;;;;;;8.52;2.20;;;;;;;;;;5008944;28;20132;-67
2022/02/04 18:39:54;;;;;;;7.05;2.30;;;;;;;;;;5017730;28;20045;-67
2022/02/04 18:44:54;;;;;;;5.68;1.70;;;;;;;;;;5018501;28;20546;-67
2022/02/04 18:47:29;;;;;;;7.43;2.10;;;;;;;;;;5013057;28;20412;-67
2022/02/04 18:50:17;;;;;;;8.20;2.10;;;;;;;;;;5013645;28;20589;-68
2022/02/04 18:58:11;;;;;;;14.23;3.67;;;;;;;;;;5018214;28;20056;-67
2022/02/04 19:00:37;;;;;;;8.90;2.35;;;;;;;;;;5020457;28;20067;-67
2022/02/04 19:03:08;;;;;;;9.15;3.33;;;;;;;;;;5016206;28;20080;-68
2022/02/04 19:05:40;;;;;;;14.18;3.60;;;;;;;;;;5007961;28;20395;-68
2022/02/04 19:08:20;;;;;;;10.77;3.00;;;;;;;;;;5018085;28;20505;-68
2022/02/04 19:10:47;;;;;;;8.63;2.75;;;;;;;;;;5011413;28;20376;-68
2022/02/04 19:13:23;;;;;;;11.32;2.80;;;;;;;;;;5020640;28;20811;-68
2022/02/04 19:18:28;;;;;;;9.60;3.00;;;;;;;;;;5014759;28;20058;-68
2022/02/04 19:21:05;;;;;;;14.30;3.22;;;;;;;;;;5015886;28;20049;-68
2022/02/04 19:23:32;;;;;;;7.18;2.33;;;;;;;;;;5009341;28;20053;-68
2022/02/04 19:26:01;;;;;;;10.73;2.83;;;;;;;;;;5019861;28;20145;-67
2022/02/04 19:28:28;;;;;;;13.82;3.05;;;;;;;;;;5012116;28;20059;-67
2022/02/04 19:30:57;;;;;;;14.25;3.47;;;;;;;;;;5013982;28;20060;-68
2022/02/04 19:33:26;;;;;;;8.80;3.53;;;;;;;;;;5006999;28;20054;-68
2022/02/04 19:35:52;;;;;;;16.45;4.15;;;;;;;;;;5018752;28;20080;-67
2022/02/04 19:38:20;;;;;;;7.25;2.88;;;;;;;;;;5016619;28;20060;-67
2022/02/04 19:40:46;;;;;;;14.73;3.80;;;;;;;;;;5011777;28;20057;-67
2022/02/04 19:43:18;;;;;;;11.57;3.90;;;;;;;;;;5017988;28;20041;-67
2022/02/04 19:45:52;;;;;;;13.77;4.22;;;;;;;;;;5006071;28;20049;-67
2022/02/04 19:48:23;;;;;;;7.85;3.53;;;;;;;;;;5015021;28;20045;-67
2022/02/04 19:51:43;;;;;;;10.75;4.35;;;;;;;;;;5010925;28;20049;-67
2022/02/04 19:54:11;;;;;;;10.68;3.88;;;;;;;;;;5011332;28;20561;-68
2022/02/04 20:24:12;;;;;;;16.92;5.47;;;;;;;;;;5018974;28;20053;-68
2022/02/04 20:26:38;;;;;;;14.90;5.25;;;;;;;;;;5006415;28;20050;-67
2022/02/04 20:29:05;;;;;;;14.15;5.88;;;;;;;;;;4997020;28;20052;-68
2022/02/04 20:31:31;;;;;;;13.82;5.72;;;;;;;;;;5008881;28;20042;-68
2022/02/04 20:33:57;;;;;;;16.17;5.28;;;;;;;;;;5018371;28;20442;-67
2022/02/04 20:36:24;;;;;;;16.58;4.78;;;;;;;;;;5020326;28;20060;-68
2022/02/04 20:38:51;;;;;;;19.38;5.07;;;;;;;;;;5010001;28;20053;-67
2022/02/04 20:41:24;;;;;;;16.42;5.38;;;;;;;;;;5012711;28;20282;-68
2022/02/04 20:43:50;;;;;;;19.33;5.85;;;;;;;;;;5008432;28;20049;-67
2022/02/04 20:46:17;;;;;;;19.52;4.65;;;;;;;;;;5019681;28;20053;-67
2022/02/04 20:48:43;;;;;;;12.57;4.45;;;;;;;;;;5008159;28;20771;-67
2022/02/04 20:51:11;;;;;;;11.77;5.20;;;;;;;;;;5016150;28;20049;-67
2022/02/04 20:53:38;;;;;;;13.82;4.75;;;;;;;;;;5014208;28;20038;-67
2022/02/04 20:56:05;;;;;;;17.98;5.82;;;;;;;;;;5007884;28;20310;-67
2022/02/04 20:58:32;;;;;;;17.17;5.38;;;;;;;;;;5018838;28;20056;-67
2022/02/04 21:00:59;;;;;;;12.68;5.22;;;;;;;;;;5008390;28;20060;-67
2022/02/04 21:03:27;;;;;;;12.65;5.28;;;;;;;;;;5004257;28;20486;-67
2022/02/04 21:05:59;;;;;;;15.85;5.63;;;;;;;;;;4998307;28;20080;-67
2022/02/04 21:08:39;;;;;;;15.75;5.18;;;;;;;;;;4995055;28;20050;-67
2022/02/04 21:13:53;;;;;;;11.43;4.43;;;;;;;;;;5001825;28;20742;-67
2022/02/04 21:16:21;;;;;;;16.92;5.18;;;;;;;;;;5000793;28;20137;-67